sensor_id;sensor_type;location;lat;lon;timestamp;P1;durP1;ratioP1;P2;durP2;ratioP2
21593;SDS011;10959;51.328;7.322;2023-05-07T00:02:18;3.93;;;3.53;;
21593;SDS011;10959;51.328;7.322;2023-05-07T00:04:44;3.73;;;3.43;;
21593;SDS011;10959;51.328;7.322;2023-05-07T00:07:10;3.57;;;3.00;;
21593;SDS011;10959;51.328;7.322;2023-05-07T00:09:37;2.73;;;2.50;;
21593;SDS011;10959;51.328;7.322;2023-05-07T00:12:05;2.90;;;2.20;;
21593;SDS011;10959;51.328;7.322;2023-05-07T00:14:32;3.53;;;1.97;;
21593;SDS011;10959;51.328;7.322;2023-05-07T00:16:58;2.37;;;2.17;;
21593;SDS011;10959;51.328;7.322;2023-05-07T00:19:24;2.83;;;2.23;;
21593;SDS011;10959;51.328;7.322;2023-05-07T00:21:51;2.73;;;1.77;;
21593;SDS011;10959;51.328;7.322;2023-05-07T00:24:18;2.93;;;1.97;;
21593;SDS011;10959;51.328;7.322;2023-05-07T00:26:45;3.70;;;2.00;;
21593;SDS011;10959;51.328;7.322;2023-05-07T00:29:12;4.47;;;2.10;;
21593;SDS011;10959;51.328;7.322;2023-05-07T00:31:39;2.13;;;1.77;;
21593;SDS011;10959;51.328;7.322;2023-05-07T00:34:05;2.20;;;1.60;;
21593;SDS011;10959;51.328;7.322;2023-05-07T00:36:32;3.03;;;1.97;;
21593;SDS011;10959;51.328;7.322;2023-05-07T00:38:59;2.53;;;2.00;;
21593;SDS011;10959;51.328;7.322;2023-05-07T00:41:27;3.83;;;1.50;;
21593;SDS011;10959;51.328;7.322;2023-05-07T00:43:53;3.43;;;1.63;;
21593;SDS011;10959;51.328;7.322;2023-05-07T00:46:21;3.17;;;1.80;;
21593;SDS011;10959;51.328;7.322;2023-05-07T00:48:48;1.90;;;1.80;;
21593;SDS011;10959;51.328;7.322;2023-05-07T00:51:16;2.80;;;1.70;;
21593;SDS011;10959;51.328;7.322;2023-05-07T00:53:43;2.20;;;1.60;;
21593;SDS011;10959;51.328;7.322;2023-05-07T00:56:11;2.07;;;1.60;;
21593;SDS011;10959;51.328;7.322;2023-05-07T00:58:37;2.53;;;2.03;;
21593;SDS011;10959;51.328;7.322;2023-05-07T01:01:04;2.93;;;1.83;;
21593;SDS011;10959;51.328;7.322;2023-05-07T01:03:32;1.80;;;1.70;;
21593;SDS011;10959;51.328;7.322;2023-05-07T01:05:59;4.07;;;2.00;;
21593;SDS011;10959;51.328;7.322;2023-05-07T01:08:27;2.40;;;2.00;;
21593;SDS011;10959;51.328;7.322;2023-05-07T01:10:55;2.23;;;2.03;;
21593;SDS011;10959;51.328;7.322;2023-05-07T01:13:23;3.57;;;2.00;;
21593;SDS011;10959;51.328;7.322;2023-05-07T01:15:50;2.47;;;1.70;;
21593;SDS011;10959;51.328;7.322;2023-05-07T01:18:17;3.90;;;2.00;;
21593;SDS011;10959;51.328;7.322;2023-05-07T01:20:45;2.10;;;1.90;;
21593;SDS011;10959;51.328;7.322;2023-05-07T01:23:13;3.10;;;2.00;;
21593;SDS011;10959;51.328;7.322;2023-05-07T01:25:40;3.23;;;2.10;;
21593;SDS011;10959;51.328;7.322;2023-05-07T01:28:06;3.87;;;2.27;;
21593;SDS011;10959;51.328;7.322;2023-05-07T01:30:33;2.23;;;1.83;;
21593;SDS011;10959;51.328;7.322;2023-05-07T01:33:01;3.47;;;2.00;;
21593;SDS011;10959;51.328;7.322;2023-05-07T01:35:32;3.77;;;2.23;;
21593;SDS011;10959;51.328;7.322;2023-05-07T01:38:03;1.97;;;1.87;;
21593;SDS011;10959;51.328;7.322;2023-05-07T01:40:32;3.57;;;2.00;;
21593;SDS011;10959;51.328;7.322;2023-05-07T01:43:00;5.10;;;2.20;;
21593;SDS011;10959;51.328;7.322;2023-05-07T01:45:26;2.60;;;2.37;;
21593;SDS011;10959;51.328;7.322;2023-05-07T01:47:54;3.80;;;2.20;;
21593;SDS011;10959;51.328;7.322;2023-05-07T01:50:21;4.53;;;2.33;;
21593;SDS011;10959;51.328;7.322;2023-05-07T01:52:49;3.27;;;2.27;;
21593;SDS011;10959;51.328;7.322;2023-05-07T01:55:16;2.90;;;2.70;;
21593;SDS011;10959;51.328;7.322;2023-05-07T01:57:47;4.30;;;3.20;;
21593;SDS011;10959;51.328;7.322;2023-05-07T02:00:14;3.10;;;2.90;;
21593;SDS011;10959;51.328;7.322;2023-05-07T02:02:40;5.17;;;3.33;;
21593;SDS011;10959;51.328;7.322;2023-05-07T02:05:07;3.20;;;2.47;;
21593;SDS011;10959;51.328;7.322;2023-05-07T02:07:34;4.93;;;3.30;;
21593;SDS011;10959;51.328;7.322;2023-05-07T02:10:00;3.63;;;2.70;;
21593;SDS011;10959;51.328;7.322;2023-05-07T02:12:27;4.57;;;3.50;;
21593;SDS011;10959;51.328;7.322;2023-05-07T02:14:55;3.47;;;2.93;;
21593;SDS011;10959;51.328;7.322;2023-05-07T02:17:22;3.03;;;2.73;;
21593;SDS011;10959;51.328;7.322;2023-05-07T02:19:48;2.80;;;2.60;;
21593;SDS011;10959;51.328;7.322;2023-05-07T02:22:15;3.10;;;2.80;;
21593;SDS011;10959;51.328;7.322;2023-05-07T02:24:41;4.00;;;2.63;;
21593;SDS011;10959;51.328;7.322;2023-05-07T02:27:09;3.17;;;2.60;;
21593;SDS011;10959;51.328;7.322;2023-05-07T02:29:35;3.23;;;2.90;;
21593;SDS011;10959;51.328;7.322;2023-05-07T02:32:03;3.00;;;2.57;;
21593;SDS011;10959;51.328;7.322;2023-05-07T02:34:30;3.03;;;2.73;;
21593;SDS011;10959;51.328;7.322;2023-05-07T02:36:56;4.10;;;2.93;;
21593;SDS011;10959;51.328;7.322;2023-05-07T02:39:22;3.20;;;2.90;;
21593;SDS011;10959;51.328;7.322;2023-05-07T02:41:49;2.87;;;2.50;;
21593;SDS011;10959;51.328;7.322;2023-05-07T02:44:16;3.60;;;2.77;;
21593;SDS011;10959;51.328;7.322;2023-05-07T02:46:42;3.57;;;2.87;;
21593;SDS011;10959;51.328;7.322;2023-05-07T02:49:10;2.83;;;2.63;;
21593;SDS011;10959;51.328;7.322;2023-05-07T02:51:36;2.90;;;2.70;;
21593;SDS011;10959;51.328;7.322;2023-05-07T02:54:03;3.60;;;2.27;;
21593;SDS011;10959;51.328;7.322;2023-05-07T02:56:29;3.43;;;2.40;;
21593;SDS011;10959;51.328;7.322;2023-05-07T02:58:56;2.37;;;2.13;;
21593;SDS011;10959;51.328;7.322;2023-05-07T03:01:22;2.23;;;2.03;;
21593;SDS011;10959;51.328;7.322;2023-05-07T03:03:49;5.00;;;2.23;;
21593;SDS011;10959;51.328;7.322;2023-05-07T03:06:17;1.80;;;1.60;;
21593;SDS011;10959;51.328;7.322;2023-05-07T03:08:43;2.67;;;1.93;;
21593;SDS011;10959;51.328;7.322;2023-05-07T03:11:10;2.10;;;1.63;;
21593;SDS011;10959;51.328;7.322;2023-05-07T03:13:36;1.50;;;1.40;;
21593;SDS011;10959;51.328;7.322;2023-05-07T03:16:02;4.53;;;1.70;;
21593;SDS011;10959;51.328;7.322;2023-05-07T03:18:29;2.47;;;1.50;;
21593;SDS011;10959;51.328;7.322;2023-05-07T03:20:55;2.03;;;1.33;;
21593;SDS011;10959;51.328;7.322;2023-05-07T03:23:23;3.27;;;1.60;;
21593;SDS011;10959;51.328;7.322;2023-05-07T03:25:50;3.30;;;1.90;;
21593;SDS011;10959;51.328;7.322;2023-05-07T03:28:16;2.60;;;1.87;;
21593;SDS011;10959;51.328;7.322;2023-05-07T03:30:42;3.13;;;1.40;;
21593;SDS011;10959;51.328;7.322;2023-05-07T03:33:09;3.57;;;1.70;;
21593;SDS011;10959;51.328;7.322;2023-05-07T03:35:35;2.17;;;1.40;;
21593;SDS011;10959;51.328;7.322;2023-05-07T03:38:02;3.13;;;1.70;;
21593;SDS011;10959;51.328;7.322;2023-05-07T03:40:30;3.87;;;1.40;;
21593;SDS011;10959;51.328;7.322;2023-05-07T03:42:56;2.53;;;1.70;;
21593;SDS011;10959;51.328;7.322;2023-05-07T03:45:22;2.37;;;1.90;;
21593;SDS011;10959;51.328;7.322;2023-05-07T03:47:49;3.97;;;1.90;;
21593;SDS011;10959;51.328;7.322;2023-05-07T03:50:15;6.50;;;2.00;;
21593;SDS011;10959;51.328;7.322;2023-05-07T03:52:42;3.73;;;1.90;;
21593;SDS011;10959;51.328;7.322;2023-05-07T03:55:09;2.00;;;1.80;;
21593;SDS011;10959;51.328;7.322;2023-05-07T03:57:37;2.30;;;1.67;;
21593;SDS011;10959;51.328;7.322;2023-05-07T04:00:03;2.47;;;1.83;;
21593;SDS011;10959;51.328;7.322;2023-05-07T04:02:32;2.00;;;1.80;;
21593;SDS011;10959;51.328;7.322;2023-05-07T04:04:59;1.63;;;1.53;;
21593;SDS011;10959;51.328;7.322;2023-05-07T04:07:25;2.03;;;1.83;;
21593;SDS011;10959;51.328;7.322;2023-05-07T04:09:51;3.77;;;2.30;;
21593;SDS011;10959;51.328;7.322;2023-05-07T04:12:18;2.20;;;2.00;;
21593;SDS011;10959;51.328;7.322;2023-05-07T04:14:46;2.10;;;1.83;;
21593;SDS011;10959;51.328;7.322;2023-05-07T04:17:12;4.20;;;2.10;;
21593;SDS011;10959;51.328;7.322;2023-05-07T04:19:39;2.33;;;2.03;;
21593;SDS011;10959;51.328;7.322;2023-05-07T04:22:10;1.83;;;1.57;;
21593;SDS011;10959;51.328;7.322;2023-05-07T04:24:36;1.70;;;1.60;;
21593;SDS011;10959;51.328;7.322;2023-05-07T04:27:02;2.53;;;2.23;;
21593;SDS011;10959;51.328;7.322;2023-05-07T04:29:29;2.43;;;2.00;;
21593;SDS011;10959;51.328;7.322;2023-05-07T04:31:57;2.00;;;1.80;;
21593;SDS011;10959;51.328;7.322;2023-05-07T04:34:24;2.30;;;2.10;;
21593;SDS011;10959;51.328;7.322;2023-05-07T04:36:50;3.03;;;2.83;;
21593;SDS011;10959;51.328;7.322;2023-05-07T04:39:16;2.57;;;2.37;;
21593;SDS011;10959;51.328;7.322;2023-05-07T04:41:43;3.17;;;2.00;;
21593;SDS011;10959;51.328;7.322;2023-05-07T04:44:09;4.17;;;2.13;;
21593;SDS011;10959;51.328;7.322;2023-05-07T04:46:36;2.33;;;2.13;;
21593;SDS011;10959;51.328;7.322;2023-05-07T04:49:03;2.67;;;2.30;;
21593;SDS011;10959;51.328;7.322;2023-05-07T04:51:30;3.10;;;2.33;;
21593;SDS011;10959;51.328;7.322;2023-05-07T04:53:57;3.00;;;2.70;;
21593;SDS011;10959;51.328;7.322;2023-05-07T04:56:24;3.83;;;2.30;;
21593;SDS011;10959;51.328;7.322;2023-05-07T04:58:53;2.80;;;2.60;;
21593;SDS011;10959;51.328;7.322;2023-05-07T05:01:19;3.30;;;3.00;;
21593;SDS011;10959;51.328;7.322;2023-05-07T05:03:46;4.57;;;3.57;;
21593;SDS011;10959;51.328;7.322;2023-05-07T05:06:14;4.00;;;3.60;;
21593;SDS011;10959;51.328;7.322;2023-05-07T05:08:40;3.03;;;2.73;;
21593;SDS011;10959;51.328;7.322;2023-05-07T05:11:07;3.63;;;3.33;;
21593;SDS011;10959;51.328;7.322;2023-05-07T05:13:33;3.50;;;3.20;;
21593;SDS011;10959;51.328;7.322;2023-05-07T05:15:59;4.10;;;3.10;;
21593;SDS011;10959;51.328;7.322;2023-05-07T05:18:26;3.90;;;3.60;;
21593;SDS011;10959;51.328;7.322;2023-05-07T05:20:52;3.60;;;3.30;;
21593;SDS011;10959;51.328;7.322;2023-05-07T05:23:20;4.07;;;3.43;;
21593;SDS011;10959;51.328;7.322;2023-05-07T05:25:46;4.30;;;3.90;;
21593;SDS011;10959;51.328;7.322;2023-05-07T05:28:13;3.83;;;3.53;;
21593;SDS011;10959;51.328;7.322;2023-05-07T05:30:39;4.63;;;4.10;;
21593;SDS011;10959;51.328;7.322;2023-05-07T05:33:06;4.00;;;3.70;;
21593;SDS011;10959;51.328;7.322;2023-05-07T05:35:32;3.73;;;3.40;;
21593;SDS011;10959;51.328;7.322;2023-05-07T05:38:00;3.47;;;3.17;;
21593;SDS011;10959;51.328;7.322;2023-05-07T05:40:28;4.10;;;3.80;;
21593;SDS011;10959;51.328;7.322;2023-05-07T05:42:55;4.97;;;4.40;;
21593;SDS011;10959;51.328;7.322;2023-05-07T05:45:22;4.30;;;3.87;;
21593;SDS011;10959;51.328;7.322;2023-05-07T05:47:48;4.63;;;4.23;;
21593;SDS011;10959;51.328;7.322;2023-05-07T05:50:14;4.70;;;4.30;;
21593;SDS011;10959;51.328;7.322;2023-05-07T05:52:41;4.87;;;4.40;;
21593;SDS011;10959;51.328;7.322;2023-05-07T05:55:08;4.70;;;4.30;;
21593;SDS011;10959;51.328;7.322;2023-05-07T05:57:36;5.57;;;4.20;;
21593;SDS011;10959;51.328;7.322;2023-05-07T06:00:03;6.40;;;4.40;;
21593;SDS011;10959;51.328;7.322;2023-05-07T06:02:30;4.53;;;3.87;;
21593;SDS011;10959;51.328;7.322;2023-05-07T06:04:57;5.33;;;4.83;;
21593;SDS011;10959;51.328;7.322;2023-05-07T06:07:23;5.03;;;3.70;;
21593;SDS011;10959;51.328;7.322;2023-05-07T06:09:50;6.90;;;5.03;;
21593;SDS011;10959;51.328;7.322;2023-05-07T06:12:16;5.33;;;4.73;;
21593;SDS011;10959;51.328;7.322;2023-05-07T06:14:44;3.80;;;3.37;;
21593;SDS011;10959;51.328;7.322;2023-05-07T06:17:10;3.83;;;3.53;;
21593;SDS011;10959;51.328;7.322;2023-05-07T06:19:37;5.67;;;2.67;;
21593;SDS011;10959;51.328;7.322;2023-05-07T06:22:03;3.80;;;3.20;;
21593;SDS011;10959;51.328;7.322;2023-05-07T06:24:30;4.20;;;3.33;;
21593;SDS011;10959;51.328;7.322;2023-05-07T06:26:56;4.07;;;3.40;;
21593;SDS011;10959;51.328;7.322;2023-05-07T06:29:23;3.57;;;3.20;;
21593;SDS011;10959;51.328;7.322;2023-05-07T06:31:52;3.80;;;3.40;;
21593;SDS011;10959;51.328;7.322;2023-05-07T06:34:18;3.50;;;3.20;;
21593;SDS011;10959;51.328;7.322;2023-05-07T06:36:45;4.17;;;3.77;;
21593;SDS011;10959;51.328;7.322;2023-05-07T06:39:11;3.33;;;3.03;;
21593;SDS011;10959;51.328;7.322;2023-05-07T06:41:38;3.20;;;2.90;;
21593;SDS011;10959;51.328;7.322;2023-05-07T06:44:04;3.40;;;3.10;;
21593;SDS011;10959;51.328;7.322;2023-05-07T06:46:31;3.20;;;2.90;;
21593;SDS011;10959;51.328;7.322;2023-05-07T06:48:58;3.23;;;2.77;;
21593;SDS011;10959;51.328;7.322;2023-05-07T06:51:25;3.23;;;2.60;;
21593;SDS011;10959;51.328;7.322;2023-05-07T06:53:51;3.10;;;2.83;;
21593;SDS011;10959;51.328;7.322;2023-05-07T06:56:18;2.50;;;2.30;;
21593;SDS011;10959;51.328;7.322;2023-05-07T06:58:44;4.50;;;2.63;;
21593;SDS011;10959;51.328;7.322;2023-05-07T07:01:11;4.40;;;3.17;;
21593;SDS011;10959;51.328;7.322;2023-05-07T07:03:37;5.67;;;3.20;;
21593;SDS011;10959;51.328;7.322;2023-05-07T07:06:05;2.60;;;2.23;;
21593;SDS011;10959;51.328;7.322;2023-05-07T07:08:32;2.27;;;2.03;;
21593;SDS011;10959;51.328;7.322;2023-05-07T07:10:59;2.40;;;2.20;;
21593;SDS011;10959;51.328;7.322;2023-05-07T07:13:25;3.27;;;2.63;;
21593;SDS011;10959;51.328;7.322;2023-05-07T07:15:52;3.33;;;2.60;;
21593;SDS011;10959;51.328;7.322;2023-05-07T07:18:19;3.80;;;3.00;;
21593;SDS011;10959;51.328;7.322;2023-05-07T07:20:45;3.60;;;3.00;;
21593;SDS011;10959;51.328;7.322;2023-05-07T07:23:13;3.30;;;3.00;;
21593;SDS011;10959;51.328;7.322;2023-05-07T07:25:39;3.87;;;3.30;;
21593;SDS011;10959;51.328;7.322;2023-05-07T07:28:06;3.30;;;2.67;;
21593;SDS011;10959;51.328;7.322;2023-05-07T07:30:33;3.23;;;2.80;;
21593;SDS011;10959;51.328;7.322;2023-05-07T07:32:59;3.13;;;2.47;;
21593;SDS011;10959;51.328;7.322;2023-05-07T07:35:27;3.67;;;2.60;;
21593;SDS011;10959;51.328;7.322;2023-05-07T07:37:53;3.00;;;2.60;;
21593;SDS011;10959;51.328;7.322;2023-05-07T07:40:21;2.60;;;2.33;;
21593;SDS011;10959;51.328;7.322;2023-05-07T07:42:48;3.77;;;2.20;;
21593;SDS011;10959;51.328;7.322;2023-05-07T07:45:14;2.57;;;2.20;;
21593;SDS011;10959;51.328;7.322;2023-05-07T07:47:41;2.60;;;2.23;;
21593;SDS011;10959;51.328;7.322;2023-05-07T07:50:08;3.37;;;2.40;;
21593;SDS011;10959;51.328;7.322;2023-05-07T07:52:35;3.57;;;2.30;;
21593;SDS011;10959;51.328;7.322;2023-05-07T07:55:02;3.07;;;2.30;;
21593;SDS011;10959;51.328;7.322;2023-05-07T07:57:30;3.33;;;1.83;;
21593;SDS011;10959;51.328;7.322;2023-05-07T07:59:57;2.27;;;1.93;;
21593;SDS011;10959;51.328;7.322;2023-05-07T08:02:23;3.57;;;2.17;;
21593;SDS011;10959;51.328;7.322;2023-05-07T08:04:50;2.80;;;1.80;;
21593;SDS011;10959;51.328;7.322;2023-05-07T08:07:16;1.57;;;1.47;;
21593;SDS011;10959;51.328;7.322;2023-05-07T08:09:45;2.83;;;1.90;;
21593;SDS011;10959;51.328;7.322;2023-05-07T08:12:12;2.20;;;2.00;;
21593;SDS011;10959;51.328;7.322;2023-05-07T08:14:40;3.07;;;1.70;;
21593;SDS011;10959;51.328;7.322;2023-05-07T08:17:07;2.00;;;1.70;;
21593;SDS011;10959;51.328;7.322;2023-05-07T08:19:34;2.97;;;2.00;;
21593;SDS011;10959;51.328;7.322;2023-05-07T08:22:01;2.63;;;1.53;;
21593;SDS011;10959;51.328;7.322;2023-05-07T08:24:29;2.13;;;1.60;;
21593;SDS011;10959;51.328;7.322;2023-05-07T08:26:55;3.60;;;1.90;;
21593;SDS011;10959;51.328;7.322;2023-05-07T08:29:21;3.50;;;2.00;;
21593;SDS011;10959;51.328;7.322;2023-05-07T08:31:49;1.50;;;1.40;;
21593;SDS011;10959;51.328;7.322;2023-05-07T08:34:16;2.37;;;1.80;;
21593;SDS011;10959;51.328;7.322;2023-05-07T08:36:42;2.97;;;2.05;;
21593;SDS011;10959;51.328;7.322;2023-05-07T08:39:08;2.38;;;1.50;;
21593;SDS011;10959;51.328;7.322;2023-05-07T08:41:35;1.67;;;1.40;;
21593;SDS011;10959;51.328;7.322;2023-05-07T08:44:02;2.25;;;1.10;;
21593;SDS011;10959;51.328;7.322;2023-05-07T08:46:32;2.00;;;1.10;;
21593;SDS011;10959;51.328;7.322;2023-05-07T08:49:01;2.45;;;1.63;;
21593;SDS011;10959;51.328;7.322;2023-05-07T08:51:28;3.80;;;1.30;;
21593;SDS011;10959;51.328;7.322;2023-05-07T08:53:56;2.15;;;1.20;;
21593;SDS011;10959;51.328;7.322;2023-05-07T08:56:23;2.63;;;1.10;;
21593;SDS011;10959;51.328;7.322;2023-05-07T08:58:50;2.42;;;1.30;;
21593;SDS011;10959;51.328;7.322;2023-05-07T09:01:16;2.20;;;1.10;;
21593;SDS011;10959;51.328;7.322;2023-05-07T09:03:44;3.83;;;1.38;;
21593;SDS011;10959;51.328;7.322;2023-05-07T09:06:13;2.35;;;1.40;;
21593;SDS011;10959;51.328;7.322;2023-05-07T09:08:40;2.00;;;1.30;;
21593;SDS011;10959;51.328;7.322;2023-05-07T09:11:06;3.03;;;1.30;;
21593;SDS011;10959;51.328;7.322;2023-05-07T09:13:33;2.35;;;0.98;;
21593;SDS011;10959;51.328;7.322;2023-05-07T09:16:06;2.00;;;0.93;;
21593;SDS011;10959;51.328;7.322;2023-05-07T09:18:40;1.35;;;1.00;;
21593;SDS011;10959;51.328;7.322;2023-05-07T09:21:09;1.33;;;0.95;;
21593;SDS011;10959;51.328;7.322;2023-05-07T09:23:37;0.93;;;0.68;;
21593;SDS011;10959;51.328;7.322;2023-05-07T09:26:04;2.25;;;0.75;;
21593;SDS011;10959;51.328;7.322;2023-05-07T09:28:33;1.30;;;0.70;;
21593;SDS011;10959;51.328;7.322;2023-05-07T09:31:00;1.38;;;0.50;;
21593;SDS011;10959;51.328;7.322;2023-05-07T09:33:26;0.70;;;0.60;;
21593;SDS011;10959;51.328;7.322;2023-05-07T09:35:53;2.30;;;0.88;;
21593;SDS011;10959;51.328;7.322;2023-05-07T09:38:20;0.88;;;0.60;;
21593;SDS011;10959;51.328;7.322;2023-05-07T09:40:52;1.25;;;0.60;;
21593;SDS011;10959;51.328;7.322;2023-05-07T09:43:27;2.45;;;0.90;;
21593;SDS011;10959;51.328;7.322;2023-05-07T09:45:58;1.45;;;1.00;;
21593;SDS011;10959;51.328;7.322;2023-05-07T09:48:27;1.40;;;1.20;;
21593;SDS011;10959;51.328;7.322;2023-05-07T09:50:55;1.52;;;1.00;;
21593;SDS011;10959;51.328;7.322;2023-05-07T09:53:27;1.23;;;1.13;;
21593;SDS011;10959;51.328;7.322;2023-05-07T09:55:57;3.60;;;1.30;;
21593;SDS011;10959;51.328;7.322;2023-05-07T09:58:24;1.88;;;0.90;;
21593;SDS011;10959;51.328;7.322;2023-05-07T10:00:52;2.90;;;1.02;;
21593;SDS011;10959;51.328;7.322;2023-05-07T10:03:19;2.15;;;0.82;;
21593;SDS011;10959;51.328;7.322;2023-05-07T10:05:47;1.67;;;1.08;;
21593;SDS011;10959;51.328;7.322;2023-05-07T10:08:15;1.38;;;1.10;;
21593;SDS011;10959;51.328;7.322;2023-05-07T10:10:42;1.50;;;1.00;;
21593;SDS011;10959;51.328;7.322;2023-05-07T10:13:10;1.42;;;1.05;;
21593;SDS011;10959;51.328;7.322;2023-05-07T10:15:37;3.08;;;1.00;;
21593;SDS011;10959;51.328;7.322;2023-05-07T10:18:04;2.55;;;0.85;;
21593;SDS011;10959;51.328;7.322;2023-05-07T10:20:32;1.48;;;0.90;;
21593;SDS011;10959;51.328;7.322;2023-05-07T10:23:00;1.30;;;1.00;;
21593;SDS011;10959;51.328;7.322;2023-05-07T10:25:30;2.55;;;1.20;;
21593;SDS011;10959;51.328;7.322;2023-05-07T10:27:59;1.73;;;1.08;;
21593;SDS011;10959;51.328;7.322;2023-05-07T10:30:33;1.85;;;1.02;;
21593;SDS011;10959;51.328;7.322;2023-05-07T10:33:13;1.88;;;1.15;;
21593;SDS011;10959;51.328;7.322;2023-05-07T10:35:44;1.27;;;1.00;;
21593;SDS011;10959;51.328;7.322;2023-05-07T10:38:13;1.70;;;0.80;;
21593;SDS011;10959;51.328;7.322;2023-05-07T10:40:39;2.40;;;0.98;;
21593;SDS011;10959;51.328;7.322;2023-05-07T10:43:06;1.52;;;1.00;;
21593;SDS011;10959;51.328;7.322;2023-05-07T10:45:34;1.30;;;1.00;;
21593;SDS011;10959;51.328;7.322;2023-05-07T10:48:07;1.83;;;1.00;;
21593;SDS011;10959;51.328;7.322;2023-05-07T10:50:35;1.90;;;0.85;;
21593;SDS011;10959;51.328;7.322;2023-05-07T10:53:20;1.90;;;0.80;;
21593;SDS011;10959;51.328;7.322;2023-05-07T10:55:51;1.05;;;0.98;;
21593;SDS011;10959;51.328;7.322;2023-05-07T10:58:50;1.83;;;1.05;;
21593;SDS011;10959;51.328;7.322;2023-05-07T11:01:17;1.27;;;1.05;;
21593;SDS011;10959;51.328;7.322;2023-05-07T11:04:17;2.83;;;1.10;;
21593;SDS011;10959;51.328;7.322;2023-05-07T11:10:04;2.28;;;1.00;;
21593;SDS011;10959;51.328;7.322;2023-05-07T11:12:51;2.17;;;0.88;;
21593;SDS011;10959;51.328;7.322;2023-05-07T11:15:41;1.95;;;1.00;;
21593;SDS011;10959;51.328;7.322;2023-05-07T11:18:11;1.40;;;0.90;;
21593;SDS011;10959;51.328;7.322;2023-05-07T11:20:48;1.17;;;0.90;;
21593;SDS011;10959;51.328;7.322;2023-05-07T11:26:23;0.93;;;0.82;;
21593;SDS011;10959;51.328;7.322;2023-05-07T11:28:50;3.17;;;1.10;;
21593;SDS011;10959;51.328;7.322;2023-05-07T11:31:20;2.15;;;0.90;;
21593;SDS011;10959;51.328;7.322;2023-05-07T11:33:49;2.00;;;1.10;;
21593;SDS011;10959;51.328;7.322;2023-05-07T11:36:18;2.42;;;1.77;;
21593;SDS011;10959;51.328;7.322;2023-05-07T11:38:45;3.40;;;1.52;;
21593;SDS011;10959;51.328;7.322;2023-05-07T11:41:12;3.55;;;2.08;;
21593;SDS011;10959;51.328;7.322;2023-05-07T11:43:53;3.30;;;1.95;;
21593;SDS011;10959;51.328;7.322;2023-05-07T11:46:23;3.17;;;2.83;;
21593;SDS011;10959;51.328;7.322;2023-05-07T11:48:51;3.53;;;2.53;;
21593;SDS011;10959;51.328;7.322;2023-05-07T11:51:21;2.63;;;2.42;;
21593;SDS011;10959;51.328;7.322;2023-05-07T11:53:49;3.55;;;2.70;;
21593;SDS011;10959;51.328;7.322;2023-05-07T11:56:16;3.42;;;3.13;;
21593;SDS011;10959;51.328;7.322;2023-05-07T11:58:44;4.40;;;2.88;;
21593;SDS011;10959;51.328;7.322;2023-05-07T12:01:12;4.65;;;3.58;;
21593;SDS011;10959;51.328;7.322;2023-05-07T12:03:41;4.15;;;3.40;;
21593;SDS011;10959;51.328;7.322;2023-05-07T12:06:10;6.15;;;3.30;;
21593;SDS011;10959;51.328;7.322;2023-05-07T12:08:38;6.97;;;3.80;;
21593;SDS011;10959;51.328;7.322;2023-05-07T12:11:08;6.88;;;4.35;;
21593;SDS011;10959;51.328;7.322;2023-05-07T12:13:36;7.63;;;5.03;;
21593;SDS011;10959;51.328;7.322;2023-05-07T12:16:03;7.53;;;5.65;;
21593;SDS011;10959;51.328;7.322;2023-05-07T12:18:31;9.85;;;5.95;;
21593;SDS011;10959;51.328;7.322;2023-05-07T12:20:59;6.95;;;5.50;;
21593;SDS011;10959;51.328;7.322;2023-05-07T12:23:27;6.55;;;5.65;;
21593;SDS011;10959;51.328;7.322;2023-05-07T12:25:54;9.07;;;6.90;;
21593;SDS011;10959;51.328;7.322;2023-05-07T12:28:20;9.00;;;6.32;;
21593;SDS011;10959;51.328;7.322;2023-05-07T12:30:47;9.35;;;5.82;;
21593;SDS011;10959;51.328;7.322;2023-05-07T12:33:16;6.32;;;5.03;;
21593;SDS011;10959;51.328;7.322;2023-05-07T12:35:46;7.00;;;6.30;;
21593;SDS011;10959;51.328;7.322;2023-05-07T12:38:13;9.07;;;6.67;;
21593;SDS011;10959;51.328;7.322;2023-05-07T12:40:43;9.83;;;7.83;;
21593;SDS011;10959;51.328;7.322;2023-05-07T12:43:15;9.57;;;8.37;;
21593;SDS011;10959;51.328;7.322;2023-05-07T12:45:42;9.90;;;8.90;;
21593;SDS011;10959;51.328;7.322;2023-05-07T12:48:10;9.67;;;8.13;;
21593;SDS011;10959;51.328;7.322;2023-05-07T12:50:36;11.80;;;8.20;;
21593;SDS011;10959;51.328;7.322;2023-05-07T12:53:03;13.27;;;7.80;;
21593;SDS011;10959;51.328;7.322;2023-05-07T12:55:31;10.07;;;6.60;;
21593;SDS011;10959;51.328;7.322;2023-05-07T12:58:00;7.20;;;5.93;;
21593;SDS011;10959;51.328;7.322;2023-05-07T13:00:34;6.83;;;4.63;;
21593;SDS011;10959;51.328;7.322;2023-05-07T13:03:01;9.77;;;5.00;;
21593;SDS011;10959;51.328;7.322;2023-05-07T13:05:28;7.70;;;4.73;;
21593;SDS011;10959;51.328;7.322;2023-05-07T13:07:54;8.80;;;4.47;;
21593;SDS011;10959;51.328;7.322;2023-05-07T13:10:21;6.20;;;4.50;;
21593;SDS011;10959;51.328;7.322;2023-05-07T13:12:48;5.17;;;2.50;;
21593;SDS011;10959;51.328;7.322;2023-05-07T13:15:17;7.20;;;3.57;;
21593;SDS011;10959;51.328;7.322;2023-05-07T13:17:44;5.53;;;4.10;;
21593;SDS011;10959;51.328;7.322;2023-05-07T13:20:11;5.80;;;4.33;;
21593;SDS011;10959;51.328;7.322;2023-05-07T13:22:38;4.97;;;3.67;;
21593;SDS011;10959;51.328;7.322;2023-05-07T13:25:05;5.27;;;3.40;;
21593;SDS011;10959;51.328;7.322;2023-05-07T13:27:32;3.73;;;2.90;;
21593;SDS011;10959;51.328;7.322;2023-05-07T13:30:01;4.20;;;2.77;;
21593;SDS011;10959;51.328;7.322;2023-05-07T13:32:29;3.07;;;2.50;;
21593;SDS011;10959;51.328;7.322;2023-05-07T13:34:56;4.40;;;2.40;;
21593;SDS011;10959;51.328;7.322;2023-05-07T13:37:22;3.37;;;2.57;;
21593;SDS011;10959;51.328;7.322;2023-05-07T13:39:49;3.57;;;3.20;;
21593;SDS011;10959;51.328;7.322;2023-05-07T13:42:16;4.73;;;4.00;;
21593;SDS011;10959;51.328;7.322;2023-05-07T13:44:42;4.93;;;4.47;;
21593;SDS011;10959;51.328;7.322;2023-05-07T13:47:10;4.37;;;3.93;;
21593;SDS011;10959;51.328;7.322;2023-05-07T13:49:38;5.43;;;4.40;;
21593;SDS011;10959;51.328;7.322;2023-05-07T13:52:04;6.40;;;5.80;;
21593;SDS011;10959;51.328;7.322;2023-05-07T13:54:31;5.33;;;4.83;;
21593;SDS011;10959;51.328;7.322;2023-05-07T13:56:57;8.17;;;6.60;;
21593;SDS011;10959;51.328;7.322;2023-05-07T13:59:23;9.70;;;8.63;;
21593;SDS011;10959;51.328;7.322;2023-05-07T14:01:50;9.23;;;8.33;;
21593;SDS011;10959;51.328;7.322;2023-05-07T14:04:16;14.17;;;9.73;;
21593;SDS011;10959;51.328;7.322;2023-05-07T14:06:44;11.00;;;9.90;;
21593;SDS011;10959;51.328;7.322;2023-05-07T14:09:11;14.63;;;13.20;;
21593;SDS011;10959;51.328;7.322;2023-05-07T14:11:38;13.53;;;12.13;;
21593;SDS011;10959;51.328;7.322;2023-05-07T14:14:05;13.60;;;12.30;;
21593;SDS011;10959;51.328;7.322;2023-05-07T14:16:31;14.60;;;13.30;;
21593;SDS011;10959;51.328;7.322;2023-05-07T14:18:58;12.73;;;11.43;;
21593;SDS011;10959;51.328;7.322;2023-05-07T14:21:24;11.57;;;10.47;;
21593;SDS011;10959;51.328;7.322;2023-05-07T14:23:52;8.47;;;7.57;;
21593;SDS011;10959;51.328;7.322;2023-05-07T14:26:20;9.50;;;8.60;;
21593;SDS011;10959;51.328;7.322;2023-05-07T14:28:49;8.53;;;7.73;;
21593;SDS011;10959;51.328;7.322;2023-05-07T14:31:15;9.23;;;7.27;;
21593;SDS011;10959;51.328;7.322;2023-05-07T14:33:42;8.50;;;6.87;;
21593;SDS011;10959;51.328;7.322;2023-05-07T14:36:08;7.07;;;6.33;;
21593;SDS011;10959;51.328;7.322;2023-05-07T14:38:34;7.23;;;6.53;;
21593;SDS011;10959;51.328;7.322;2023-05-07T14:41:02;8.00;;;7.27;;
21593;SDS011;10959;51.328;7.322;2023-05-07T14:43:29;8.60;;;7.43;;
21593;SDS011;10959;51.328;7.322;2023-05-07T14:45:55;6.27;;;5.67;;
21593;SDS011;10959;51.328;7.322;2023-05-07T14:48:21;5.33;;;4.83;;
21593;SDS011;10959;51.328;7.322;2023-05-07T14:50:48;6.83;;;6.10;;
21593;SDS011;10959;51.328;7.322;2023-05-07T14:53:14;5.90;;;5.30;;
21593;SDS011;10959;51.328;7.322;2023-05-07T14:55:41;7.13;;;6.43;;
21593;SDS011;10959;51.328;7.322;2023-05-07T14:58:09;5.37;;;4.87;;